Time;durP1;ratioP1;P1;durP2;ratioP2;P2;SDS_P1;SDS_P2;PMS_P1;PMS_P2;Temp;Humidity;BMP_temperature;BMP_pressure;BME280_temperature;BME280_humidity;BME280_pressure;Samples;Min_cycle;Max_cycle;Signal;HPM_P1;HPM_P2
2021/08/23 00:03:11;;;;;;;4.50;3.80;;;;;;;17.79;69.85;100694.45;227383;1207;139202;-74
2021/08/23 00:08:13;;;;;;;5.00;4.00;;;;;;;17.87;69.89;100694.48;227056;1207;139435;-72
2021/08/23 00:13:15;;;;;;;4.20;3.90;;;;;;;17.92;69.82;100695.55;226953;1207;138605;-72
2021/08/23 00:18:16;;;;;;;4.10;3.60;;;;;;;17.85;70.75;100695.57;226944;1206;137952;-73
2021/08/23 00:23:20;;;;;;;6.50;3.40;;;;;;;17.64;71.96;100686.80;227087;1204;138441;-73
2021/08/23 00:28:22;;;;;;;4.00;3.60;;;;;;;17.51;73.01;100676.36;226831;1201;137924;-73
2021/08/23 00:33:24;;;;;;;3.90;3.60;;;;;;;17.46;73.03;100685.97;226861;1202;138600;-73
2021/08/23 00:38:26;;;;;;;3.60;3.30;;;;;;;17.58;72.10;100676.21;226905;1207;138968;-73
2021/08/23 00:43:29;;;;;;;3.80;3.40;;;;;;;17.66;71.01;100690.48;226842;1202;141073;-73
2021/08/23 00:48:32;;;;;;;3.90;3.50;;;;;;;17.60;70.72;100692.88;226893;1208;138624;-73
2021/08/23 00:53:34;;;;;;;3.20;3.00;;;;;;;17.68;70.60;100689.02;226867;1204;138305;-75
2021/08/23 00:58:36;;;;;;;3.70;3.40;;;;;;;17.57;70.37;100687.48;226953;1208;138028;-74
2021/08/23 01:04:02;;;;;;;3.90;3.60;;;;;;;17.56;69.33;100679.86;226810;1207;142474;-74
2021/08/23 01:09:10;;;;;;;3.50;3.20;;;;;;;17.69;69.32;100679.84;226838;1208;139033;-72
2021/08/23 01:14:12;;;;;;;2.80;2.60;;;;;;;17.71;69.14;100680.94;226905;1201;138800;-74
2021/08/23 01:19:16;;;;;;;5.30;3.50;;;;;;;17.64;69.47;100674.90;226718;1208;138083;-73
2021/08/23 01:24:19;;;;;;;3.20;2.80;;;;;;;17.50;70.05;100678.44;226704;1208;138680;-72
2021/08/23 01:29:27;;;;;;;3.40;3.10;;;;;;;17.41;69.90;100681.55;227500;1201;138345;-74
2021/08/23 01:34:29;;;;;;;3.60;3.30;;;;;;;17.45;69.72;100670.58;226759;1207;139212;-74
2021/08/23 01:39:35;;;;;;;3.70;3.30;;;;;;;17.51;69.88;100667.84;226995;1208;138203;-73
2021/08/23 01:44:37;;;;;;;3.80;2.90;;;;;;;17.53;69.68;100662.73;226998;1208;137995;-73
2021/08/23 01:49:39;;;;;;;4.90;3.30;;;;;;;17.48;69.94;100657.84;226862;1208;137757;-74
2021/08/23 01:54:43;;;;;;;3.20;2.90;;;;;;;17.43;69.77;100654.58;226859;1208;138423;-75
2021/08/23 01:59:48;;;;;;;5.00;3.20;;;;;;;17.37;69.54;100649.23;226769;1208;137849;-72
2021/08/23 02:04:49;;;;;;;3.20;2.90;;;;;;;17.38;69.49;100648.33;227227;1209;138786;-74
2021/08/23 02:09:51;;;;;;;3.30;3.00;;;;;;;17.46;69.23;100655.95;227328;1207;138297;-74
2021/08/23 02:14:52;;;;;;;3.20;3.00;;;;;;;17.52;68.83;100651.09;226858;1205;138029;-76
2021/08/23 02:19:54;;;;;;;3.20;2.60;;;;;;;17.51;68.80;100655.84;226838;1208;137769;-75
2021/08/23 02:24:56;;;;;;;3.30;3.10;;;;;;;17.46;68.61;100653.09;226809;1209;137807;-74
2021/08/23 02:29:57;;;;;;;3.10;2.90;;;;;;;17.40;68.88;100647.80;226828;1208;137901;-74
2021/08/23 02:34:59;;;;;;;3.70;3.10;;;;;;;17.35;69.10;100652.62;226899;1201;138393;-73
2021/08/23 02:40:01;;;;;;;3.20;3.00;;;;;;;17.38;69.03;100657.50;227020;1201;138400;-73
2021/08/23 02:45:04;;;;;;;3.80;3.40;;;;;;;17.39;69.03;100647.23;226833;1208;138138;-73
2021/08/23 02:50:08;;;;;;;4.00;2.80;;;;;;;17.34;69.29;100630.19;227140;1208;138290;-71
2021/08/23 02:55:10;;;;;;;3.20;2.90;;;;;;;17.32;69.68;100623.69;227210;1207;138689;-74
2021/08/23 03:00:12;;;;;;;3.20;2.90;;;;;;;17.26;69.98;100608.88;227335;1205;138667;-74
2021/08/23 03:05:14;;;;;;;3.40;3.10;;;;;;;17.21;70.35;100592.47;227236;1207;139357;-76
2021/08/23 03:10:16;;;;;;;3.20;2.90;;;;;;;17.26;70.02;100581.71;227126;1208;141966;-75
2021/08/23 03:15:17;;;;;;;2.70;2.50;;;;;;;17.25;69.97;100576.23;227110;1208;138025;-76
2021/08/23 03:20:19;;;;;;;4.70;2.80;;;;;;;17.19;70.21;100586.83;227064;1208;139299;-74
2021/08/23 03:25:21;;;;;;;2.80;2.50;;;;;;;17.16;70.14;100605.36;228733;1201;138497;-74
2021/08/23 03:30:22;;;;;;;2.80;2.60;;;;;;;17.11;70.06;100616.66;227064;1208;138239;-74
2021/08/23 03:35:24;;;;;;;3.10;2.80;;;;;;;17.09;70.41;100630.79;227132;1208;138877;-71
2021/08/23 03:40:26;;;;;;;3.40;2.50;;;;;;;17.11;70.14;100645.02;226983;1208;138225;-71
2021/08/23 03:45:27;;;;;;;3.50;2.50;;;;;;;17.15;69.70;100651.75;226871;1201;137797;-71
2021/08/23 03:50:29;;;;;;;2.60;2.20;;;;;;;17.16;69.61;100658.79;227253;1208;138796;-75
2021/08/23 03:55:31;;;;;;;2.90;2.70;;;;;;;17.09;69.94;100653.54;228166;1208;137834;-74
2021/08/23 04:00:32;;;;;;;3.50;2.70;;;;;;;17.04;69.97;100656.02;227575;1208;137884;-70
2021/08/23 04:05:34;;;;;;;2.90;2.70;;;;;;;16.96;69.68;100644.80;226991;1202;138853;-74
2021/08/23 04:10:35;;;;;;;3.50;2.70;;;;;;;17.03;69.22;100640.94;227078;1206;138330;-74
2021/08/23 04:15:37;;;;;;;3.30;2.80;;;;;;;17.00;69.52;100642.47;226935;1208;138093;-72
2021/08/23 04:20:39;;;;;;;3.30;2.90;;;;;;;16.90;69.75;100640.64;227039;1208;138339;-73
2021/08/23 04:25:42;;;;;;;3.50;2.80;;;;;;;16.91;69.97;100622.40;226775;1199;138184;-74
2021/08/23 04:30:44;;;;;;;3.50;2.70;;;;;;;16.89;69.75;100614.51;226854;1205;138625;-73
2021/08/23 04:35:45;;;;;;;3.10;2.80;;;;;;;16.92;69.48;100605.17;227043;1208;139386;-68
2021/08/23 04:40:47;;;;;;;3.40;2.90;;;;;;;16.99;69.42;100587.58;227206;1202;138515;-74
2021/08/23 04:45:50;;;;;;;3.60;3.20;;;;;;;17.06;69.15;100589.38;227850;1202;138286;-76
2021/08/23 04:50:51;;;;;;;3.20;2.90;;;;;;;17.05;69.07;100598.57;227307;1201;138164;-73
2021/08/23 04:55:53;;;;;;;2.30;2.10;;;;;;;16.99;69.36;100609.14;227729;1205;138149;-73
2021/08/23 05:00:55;;;;;;;3.10;2.70;;;;;;;16.94;69.46;100618.42;227130;1207;138304;-70
2021/08/23 05:05:56;;;;;;;3.60;2.50;;;;;;;16.94;69.50;100610.64;227076;1208;138730;-73
2021/08/23 05:10:58;;;;;;;3.60;3.00;;;;;;;17.02;69.41;100595.87;227000;1200;138881;-73
2021/08/23 05:16:00;;;;;;;3.50;3.20;;;;;;;17.07;68.82;100595.25;234471;1200;139100;-72
2021/08/23 05:21:03;;;;;;;7.90;3.30;;;;;;;17.10;68.47;100613.08;228752;1201;138306;-72
2021/08/23 05:26:06;;;;;;;4.80;4.10;;;;;;;17.05;68.49;100624.60;227226;1208;138380;-73
2021/08/23 05:31:08;;;;;;;7.30;6.20;;;;;;;17.01;68.61;100636.48;227151;1207;137952;-71
2021/08/23 05:36:10;;;;;;;4.90;4.30;;;;;;;17.02;68.95;100639.86;227249;1208;138565;-71
2021/08/23 05:41:11;;;;;;;6.90;4.30;;;;;;;17.05;69.17;100641.46;227099;1208;138357;-73
2021/08/23 05:46:15;;;;;;;4.50;3.20;;;;;;;17.09;68.91;100641.52;227207;1201;138465;-73
2021/08/23 05:51:18;;;;;;;3.40;3.10;;;;;;;17.11;69.00;100642.29;227117;1208;138198;-74
2021/08/23 05:56:19;;;;;;;3.60;2.70;;;;;;;17.10;69.33;100634.27;229110;1208;138336;-73
2021/08/23 06:01:21;;;;;;;2.80;2.60;;;;;;;17.04;69.22;100639.39;229712;1208;138621;-72
2021/08/23 06:06:22;;;;;;;4.20;2.70;;;;;;;17.03;69.16;100634.25;227531;1203;138768;-73
2021/08/23 06:11:24;;;;;;;3.10;2.90;;;;;;;17.10;68.90;100632.06;227363;1206;138160;-73
2021/08/23 06:16:26;;;;;;;4.30;2.90;;;;;;;17.17;68.65;100631.96;227243;1204;137888;-74
2021/08/23 06:21:27;;;;;;;3.30;3.00;;;;;;;17.19;68.40;100630.99;227384;1208;138457;-74
2021/08/23 06:26:29;;;;;;;3.80;2.60;;;;;;;17.17;68.65;100629.66;227265;1207;138412;-72
2021/08/23 06:31:30;;;;;;;4.20;2.90;;;;;;;17.11;69.05;100625.88;227681;1201;138983;-73
2021/08/23 06:36:33;;;;;;;5.60;2.70;;;;;;;17.14;69.64;100631.02;227242;1208;138785;-72
2021/08/23 06:41:35;;;;;;;3.20;2.90;;;;;;;17.20;69.41;100626.29;227419;1208;138115;-72
2021/08/23 06:46:36;;;;;;;3.40;3.10;;;;;;;17.26;69.43;100628.89;227382;1208;138224;-72
2021/08/23 06:51:38;;;;;;;4.20;3.10;;;;;;;17.23;69.60;100626.89;227280;1208;137843;-70
2021/08/23 06:56:41;;;;;;;3.70;3.40;;;;;;;17.21;69.50;100628.48;227279;1208;138760;-73
2021/08/23 07:01:43;;;;;;;4.20;3.50;;;;;;;17.16;69.42;100629.00;227202;1205;138011;-73
2021/08/23 07:06:45;;;;;;;3.70;3.30;;;;;;;17.19;69.91;100622.98;227108;1206;138990;-73
2021/08/23 07:11:46;;;;;;;3.80;3.50;;;;;;;17.28;69.88;100627.20;227194;1204;138696;-73
2021/08/23 07:16:48;;;;;;;4.20;3.20;;;;;;;17.39;69.30;100623.13;227217;1207;138224;-73
2021/08/23 07:21:49;;;;;;;4.40;3.40;;;;;;;17.44;68.78;100622.61;227213;1205;141394;-72
2021/08/23 07:26:51;;;;;;;3.70;3.40;;;;;;;17.44;68.90;100623.34;227281;1201;138771;-73
2021/08/23 07:31:53;;;;;;;5.20;3.70;;;;;;;17.41;69.30;100630.42;226867;1208;138290;-72
2021/08/23 07:36:54;;;;;;;4.30;3.80;;;;;;;17.44;69.30;100631.64;226855;1208;139057;-73
2021/08/23 07:41:56;;;;;;;4.00;3.60;;;;;;;17.53;69.11;100634.48;227023;1206;138343;-73
2021/08/23 07:46:57;;;;;;;4.10;3.80;;;;;;;17.59;68.89;100634.86;227027;1201;138633;-72
2021/08/23 07:51:59;;;;;;;5.80;4.40;;;;;;;17.62;68.92;100637.75;227127;1207;139299;-71
2021/08/23 07:57:02;;;;;;;12.20;11.10;;;;;;;17.60;69.64;100637.33;227239;1208;138092;-75
2021/08/23 08:02:04;;;;;;;7.20;5.50;;;;;;;17.55;69.03;100643.38;227085;1208;138789;-73
2021/08/23 08:07:05;;;;;;;9.90;7.70;;;;;;;17.56;69.21;100645.15;228948;1207;138982;-72
2021/08/23 08:12:07;;;;;;;7.10;4.70;;;;;;;17.59;68.91;100648.46;228313;1201;138408;-74
2021/08/23 08:17:09;;;;;;;6.00;5.40;;;;;;;17.69;69.77;100650.39;227334;1201;138278;-71
2021/08/23 08:22:13;;;;;;;4.90;4.50;;;;;;;17.69;70.20;100653.52;227105;1208;137766;-73
2021/08/23 08:27:14;;;;;;;5.40;4.10;;;;;;;17.67;70.59;100657.05;227089;1207;138239;-72
2021/08/23 08:32:17;;;;;;;5.60;4.90;;;;;;;17.63;71.26;100664.17;227037;1207;138013;-73
2021/08/23 08:37:19;;;;;;;11.10;8.70;;;;;;;17.63;71.28;100665.90;227050;1208;139037;-72
2021/08/23 08:42:21;;;;;;;6.00;5.50;;;;;;;17.72;71.21;100671.73;226925;1207;138349;-73
2021/08/23 08:47:23;;;;;;;5.60;5.20;;;;;;;17.79;71.16;100676.09;227016;1208;137847;-73
2021/08/23 08:52:25;;;;;;;4.60;4.30;;;;;;;17.78;71.33;100680.78;227102;1207;138780;-72
2021/08/23 08:57:27;;;;;;;5.70;5.20;;;;;;;17.74;71.49;100683.31;227044;1207;137799;-71
2021/08/23 09:02:29;;;;;;;4.90;4.50;;;;;;;17.75;71.61;100682.99;226937;1200;139034;-72
2021/08/23 09:07:38;;;;;;;5.00;4.50;;;;;;;17.84;71.59;100682.93;226993;1201;138763;-73
2021/08/23 09:12:39;;;;;;;5.20;4.80;;;;;;;17.90;71.35;100682.36;226927;1207;138409;-72
2021/08/23 09:17:41;;;;;;;6.70;6.00;;;;;;;17.84;71.09;100682.02;227139;1208;138214;-73
2021/08/23 09:22:43;;;;;;;5.90;5.40;;;;;;;17.82;71.56;100686.33;227454;1207;138531;-73
2021/08/23 09:27:45;;;;;;;6.70;6.00;;;;;;;17.79;71.91;100685.81;227276;1201;138692;-73
2021/08/23 09:32:49;;;;;;;9.40;8.40;;;;;;;17.81;71.33;100683.98;227439;1207;138743;-75
2021/08/23 09:37:51;;;;;;;6.40;5.90;;;;;;;17.87;71.83;100689.50;227830;1200;137847;-71
2021/08/23 09:43:08;;;;;;;17.10;15.50;;;;;;;17.83;72.84;100684.44;226920;1207;138156;-74
2021/08/23 09:48:10;;;;;;;7.90;7.30;;;;;;;17.77;72.92;100686.62;226882;1208;138548;-74
2021/08/23 09:53:15;;;;;;;5.80;4.80;;;;;;;17.79;73.67;100684.20;227142;1201;138859;-73
2021/08/23 09:58:16;;;;;;;6.60;5.90;;;;;;;17.82;73.64;100678.67;227388;1207;139200;-75
2021/08/23 10:03:23;;;;;;;6.00;5.40;;;;;;;17.87;73.81;100680.70;226880;1207;138006;-72
2021/08/23 10:08:26;;;;;;;5.80;5.20;;;;;;;17.88;74.77;100678.85;227149;1200;138223;-74
2021/08/23 10:13:27;;;;;;;6.30;5.80;;;;;;;17.84;75.34;100673.52;226923;1207;137852;-76
2021/08/23 10:18:29;;;;;;;6.60;6.00;;;;;;;17.81;75.25;100669.08;226910;1208;139134;-75
2021/08/23 10:23:31;;;;;;;7.10;6.50;;;;;;;17.85;75.22;100669.23;226833;1207;138976;-73
2021/08/23 10:28:38;;;;;;;9.10;8.20;;;;;;;17.90;75.35;100669.48;226940;1207;138737;-73
2021/08/23 10:33:42;;;;;;;8.30;7.50;;;;;;;17.95;75.39;100674.48;227522;1200;138115;-73
2021/08/23 10:38:48;;;;;;;8.30;7.50;;;;;;;17.86;76.14;100672.86;227068;1201;137970;-73
2021/08/23 10:43:50;;;;;;;9.40;8.50;;;;;;;17.75;76.59;100672.55;226835;1200;138811;-73
2021/08/23 10:48:53;;;;;;;9.90;8.90;;;;;;;17.75;77.00;100672.27;226849;1207;139352;-72
2021/08/23 10:53:54;;;;;;;11.00;9.70;;;;;;;17.77;77.51;100676.98;226870;1200;139088;-72
2021/08/23 10:58:56;;;;;;;8.30;7.50;;;;;;;17.77;77.72;100670.23;226942;1208;139449;-73
2021/08/23 11:04:08;;;;;;;9.40;8.50;;;;;;;17.77;77.63;100667.86;226962;1207;138132;-73
2021/08/23 11:09:12;;;;;;;12.20;10.80;;;;;;;17.73;78.04;100667.39;227235;1207;137748;-73
2021/08/23 11:14:18;;;;;;;10.00;9.10;;;;;;;17.66;78.46;100661.44;226916;1207;139502;-73
2021/08/23 11:19:21;;;;;;;9.30;8.40;;;;;;;17.66;78.80;100659.85;226881;1207;139568;-77
2021/08/23 11:24:27;;;;;;;8.40;7.60;;;;;;;17.67;79.16;100657.79;227228;1207;138628;-73
2021/08/23 11:29:30;;;;;;;7.80;7.00;;;;;;;17.60;79.59;100658.10;227202;1207;138217;-74
2021/08/23 11:34:33;;;;;;;8.70;7.90;;;;;;;17.52;80.31;100655.52;226784;1207;138601;-73
2021/08/23 11:39:35;;;;;;;8.40;6.90;;;;;;;17.45;80.90;100659.35;226950;1207;139039;-74
2021/08/23 11:44:38;;;;;;;7.50;6.80;;;;;;;17.47;81.09;100656.99;226952;1207;139180;-73
2021/08/23 11:49:40;;;;;;;12.60;10.80;;;;;;;17.46;81.38;100646.30;226935;1204;139178;-73
2021/08/23 11:54:50;;;;;;;7.90;7.20;;;;;;;17.46;81.46;100647.45;227254;1201;138761;-73
2021/08/23 11:59:52;;;;;;;8.10;7.30;;;;;;;17.42;82.06;100652.92;226963;1207;138123;-74
2021/08/23 12:05:14;;;;;;;8.20;7.40;;;;;;;17.37;82.30;100653.98;227085;1207;138466;-73
2021/08/23 12:10:37;;;;;;;7.90;7.20;;;;;;;17.35;82.63;100657.42;227557;1200;138580;-72
2021/08/23 12:15:54;;;;;;;8.60;7.80;;;;;;;17.39;83.01;100653.46;228426;1200;138924;-74
2021/08/23 12:21:25;;;;;;;8.60;7.70;;;;;;;17.41;83.06;100651.39;228785;1207;139098;-74
2021/08/23 12:26:42;;;;;;;9.30;7.60;;;;;;;17.43;83.04;100645.04;227365;1207;138734;-73
2021/08/23 12:31:57;;;;;;;9.50;8.60;;;;;;;17.45;83.08;100642.27;227496;1200;138911;-75
2021/08/23 12:37:00;;;;;;;;;;;;;;;17.42;83.35;100637.17;226977;1207;138067;-74
2021/08/23 12:42:08;;;;;;;10.00;9.00;;;;;;;17.37;83.60;100632.45;227022;1207;124544;-73
2021/08/23 12:47:10;;;;;;;9.70;8.50;;;;;;;17.33;83.85;100628.51;227005;1200;139249;-75
2021/08/23 12:52:11;;;;;;;9.20;8.40;;;;;;;17.28;84.04;100625.05;227074;1200;138734;-76
2021/08/23 12:57:13;;;;;;;9.00;8.20;;;;;;;17.31;84.02;100619.70;227677;1201;139036;-75
2021/08/23 13:02:21;;;;;;;8.90;8.00;;;;;;;17.31;83.96;100612.91;227264;1200;139454;-73
2021/08/23 13:07:23;;;;;;;9.00;8.10;;;;;;;17.30;84.03;100612.36;227109;1204;151399;-74
2021/08/23 13:12:24;;;;;;;9.70;8.90;;;;;;;17.30;84.18;100611.66;226944;1201;138836;-73
2021/08/23 13:17:26;;;;;;;10.80;9.90;;;;;;;17.27;84.32;100605.02;226927;1200;139078;-74
2021/08/23 13:22:28;;;;;;;9.20;8.30;;;;;;;17.22;84.57;100605.10;226946;1203;139055;-73
2021/08/23 13:27:30;;;;;;;10.80;9.80;;;;;;;17.22;84.51;100603.73;226933;1201;138998;-74
2021/08/23 13:32:31;;;;;;;10.40;9.50;;;;;;;17.23;84.60;100604.79;227066;1208;139383;-75
2021/08/23 13:37:33;;;;;;;10.10;9.00;;;;;;;17.23;84.43;100601.48;226992;1207;138716;-75
2021/08/23 13:42:36;;;;;;;9.40;8.60;;;;;;;17.20;84.35;100603.67;226994;1202;137900;-73
2021/08/23 13:47:38;;;;;;;12.20;8.20;;;;;;;17.10;84.60;100603.46;227041;1200;138150;-74
2021/08/23 13:52:40;;;;;;;9.30;8.30;;;;;;;17.00;84.81;100615.69;226843;1201;138997;-73
2021/08/23 13:57:42;;;;;;;8.60;7.70;;;;;;;16.95;84.79;100613.13;226870;1207;139119;-72
2021/08/23 14:02:44;;;;;;;9.30;8.30;;;;;;;16.92;84.71;100601.71;226907;1208;138478;-74
2021/08/23 14:07:48;;;;;;;8.90;8.10;;;;;;;16.91;84.79;100588.02;226861;1207;139005;-72
2021/08/23 14:12:49;;;;;;;9.50;8.70;;;;;;;16.91;84.73;100586.76;227042;1208;138840;-70
2021/08/23 14:17:51;;;;;;;9.30;8.00;;;;;;;16.90;84.82;100584.38;227640;1200;138536;-74
2021/08/23 14:22:53;;;;;;;8.70;7.90;;;;;;;16.91;84.87;100592.41;227285;1207;138340;-73
2021/08/23 14:27:54;;;;;;;8.50;7.70;;;;;;;16.86;84.98;100603.02;226933;1207;138384;-74
2021/08/23 14:32:56;;;;;;;11.20;10.20;;;;;;;16.82;85.40;100601.20;226935;1207;138813;-73
2021/08/23 14:37:58;;;;;;;11.20;10.00;;;;;;;16.86;85.27;100600.22;226981;1207;139001;-74
2021/08/23 14:42:59;;;;;;;8.70;7.90;;;;;;;16.85;85.22;100605.92;226956;1207;138951;-71
2021/08/23 14:48:01;;;;;;;15.50;14.00;;;;;;;16.83;85.12;100611.27;226948;1200;139297;-75
2021/08/23 14:53:03;;;;;;;11.80;10.60;;;;;;;16.88;84.94;100615.72;226883;1207;138963;-74
2021/08/23 14:58:04;;;;;;;13.00;11.00;;;;;;;16.96;84.79;100615.59;227308;1201;139422;-73
2021/08/23 15:03:06;;;;;;;10.00;9.10;;;;;;;17.00;84.79;100611.33;227051;1206;139550;-72
2021/08/23 15:08:08;;;;;;;10.30;9.40;;;;;;;16.98;84.98;100612.78;226914;1207;139231;-74
2021/08/23 15:13:10;;;;;;;10.40;9.00;;;;;;;16.93;85.32;100618.08;226943;1200;139056;-74
2021/08/23 15:18:12;;;;;;;10.50;9.50;;;;;;;16.90;85.31;100617.85;226986;1207;140075;-75
2021/08/23 15:23:27;;;;;;;9.40;8.50;;;;;;;16.92;85.48;100612.47;227289;1207;142424;-74
2021/08/23 15:28:29;;;;;;;10.10;9.20;;;;;;;16.91;85.40;100613.98;226872;1207;139589;-72
2021/08/23 15:33:32;;;;;;;8.60;7.90;;;;;;;16.91;85.50;100613.83;227021;1208;139410;-73
2021/08/23 15:38:35;;;;;;;8.60;7.70;;;;;;;16.91;85.42;100617.02;226942;1201;138635;-72
2021/08/23 15:43:37;;;;;;;9.20;8.30;;;;;;;16.88;85.58;100613.75;226763;1207;138419;-73
2021/08/23 15:48:39;;;;;;;12.50;10.70;;;;;;;16.84;85.69;100614.40;227054;1207;138351;-74
2021/08/23 15:53:41;;;;;;;10.00;9.00;;;;;;;16.78;86.03;100617.88;226821;1207;138988;-73
2021/08/23 15:58:43;;;;;;;10.00;9.00;;;;;;;16.81;86.14;100616.47;226894;1207;138776;-73
2021/08/23 16:03:45;;;;;;;8.90;8.10;;;;;;;16.83;85.97;100619.36;226859;1207;139093;-71
2021/08/23 16:08:46;;;;;;;9.30;8.30;;;;;;;16.82;86.15;100620.63;226865;1200;138677;-73
2021/08/23 16:13:48;;;;;;;7.80;7.00;;;;;;;16.84;85.90;100626.93;226911;1207;139514;-73
2021/08/23 16:18:50;;;;;;;8.00;7.30;;;;;;;16.84;85.95;100630.51;227097;1207;138879;-74
2021/08/23 16:23:51;;;;;;;9.20;8.40;;;;;;;16.85;86.03;100625.41;227007;1207;138798;-73
2021/08/23 16:28:53;;;;;;;10.20;9.20;;;;;;;16.85;86.10;100628.62;227037;1207;139445;-74
2021/08/23 16:33:55;;;;;;;9.10;8.30;;;;;;;16.87;85.93;100632.27;229138;1207;139084;-74
2021/08/23 16:38:56;;;;;;;10.90;9.10;;;;;;;16.88;85.85;100640.46;227366;1201;139155;-75
2021/08/23 16:43:58;;;;;;;8.10;7.30;;;;;;;16.83;86.04;100646.65;227102;1201;139822;-70
2021/08/23 16:49:00;;;;;;;8.10;7.40;;;;;;;16.80;86.19;100648.89;226926;1207;139828;-74
2021/08/23 16:54:02;;;;;;;8.60;7.90;;;;;;;16.77;86.35;100653.02;226893;1207;139582;-75
2021/08/23 16:59:03;;;;;;;8.00;7.30;;;;;;;16.78;86.47;100656.02;227173;1201;139296;-74
2021/08/23 17:04:05;;;;;;;9.20;7.60;;;;;;;16.76;86.48;100663.88;226917;1204;140593;-74
2021/08/23 17:09:07;;;;;;;7.80;7.00;;;;;;;16.73;86.52;100666.24;226925;1207;139182;-74
2021/08/23 17:14:08;;;;;;;8.30;7.50;;;;;;;16.68;86.69;100666.45;226907;1207;138924;-74
2021/08/23 17:19:10;;;;;;;7.30;6.60;;;;;;;16.62;86.63;100672.42;227124;1208;139214;-73
2021/08/23 17:24:12;;;;;;;8.00;7.20;;;;;;;16.58;87.08;100671.89;226948;1207;140070;-75
2021/08/23 17:29:14;;;;;;;7.10;6.40;;;;;;;16.57;87.02;100679.13;227772;1201;139863;-75
2021/08/23 17:34:15;;;;;;;7.20;6.50;;;;;;;16.59;86.84;100675.14;227471;1202;139054;-76
2021/08/23 17:39:17;;;;;;;7.40;6.70;;;;;;;16.60;86.75;100680.89;227343;1208;139007;-73
2021/08/23 17:44:19;;;;;;;7.70;7.00;;;;;;;16.59;86.60;100686.27;227077;1201;139498;-77
2021/08/23 17:49:21;;;;;;;6.90;6.30;;;;;;;16.55;86.69;100685.32;228151;1202;139234;-75
2021/08/23 17:54:22;;;;;;;7.30;6.60;;;;;;;16.53;86.76;100687.45;227083;1202;139487;-74
2021/08/23 17:59:24;;;;;;;6.70;6.10;;;;;;;16.51;86.71;100695.55;227079;1207;138737;-75
2021/08/23 18:04:25;;;;;;;6.00;5.50;;;;;;;16.44;86.53;100696.23;226901;1201;138712;-74
2021/08/23 18:09:27;;;;;;;6.80;5.80;;;;;;;16.39;86.70;100703.11;227708;1200;140209;-73
2021/08/23 18:14:29;;;;;;;6.40;5.80;;;;;;;16.42;86.48;100701.78;227486;1202;139446;-74
2021/08/23 18:19:30;;;;;;;6.00;5.50;;;;;;;16.36;86.54;100710.08;227767;1202;138910;-75
2021/08/23 18:24:32;;;;;;;6.70;6.00;;;;;;;16.37;86.52;100716.96;227462;1200;138583;-74
2021/08/23 18:29:34;;;;;;;6.60;6.00;;;;;;;16.41;86.28;100726.80;227459;1201;138877;-77
2021/08/23 18:34:35;;;;;;;6.50;5.90;;;;;;;16.42;86.47;100730.42;226949;1207;139263;-74
2021/08/23 18:39:38;;;;;;;5.80;5.30;;;;;;;16.40;86.52;100727.20;227722;1207;140218;-75
2021/08/23 18:44:40;;;;;;;6.60;6.10;;;;;;;16.40;86.39;100728.31;227318;1202;141545;-74
2021/08/23 18:49:42;;;;;;;8.20;6.30;;;;;;;16.38;86.40;100726.70;226910;1204;139954;-76
2021/08/23 18:54:44;;;;;;;7.10;6.50;;;;;;;16.38;86.42;100725.90;227006;1207;138919;-76
2021/08/23 18:59:46;;;;;;;6.80;6.20;;;;;;;16.40;86.39;100733.69;228001;1201;138280;-76
2021/08/23 19:04:47;;;;;;;7.60;7.00;;;;;;;16.36;86.41;100734.52;227100;1207;138325;-74
2021/08/23 19:09:49;;;;;;;7.90;7.10;;;;;;;16.29;86.64;100741.02;227479;1202;139699;-75
2021/08/23 19:14:51;;;;;;;7.60;6.80;;;;;;;16.25;86.71;100748.97;227284;1207;139836;-77
2021/08/23 19:19:54;;;;;;;7.00;6.30;;;;;;;16.24;86.95;100759.52;227834;1202;138733;-74
2021/08/23 19:24:56;;;;;;;7.00;6.40;;;;;;;16.27;86.79;100764.36;226915;1207;138722;-75
2021/08/23 19:29:58;;;;;;;7.00;6.30;;;;;;;16.29;86.65;100764.99;227903;1204;142224;-75
2021/08/23 19:35:00;;;;;;;7.20;6.60;;;;;;;16.28;86.85;100766.73;227521;1201;139531;-74
2021/08/23 19:40:07;;;;;;;6.70;6.10;;;;;;;16.30;86.81;100772.95;227061;1207;138809;-76
2021/08/23 19:45:09;;;;;;;7.50;6.60;;;;;;;16.30;86.75;100777.32;228341;1201;139616;-75
2021/08/23 19:50:11;;;;;;;7.10;6.50;;;;;;;16.30;86.76;100783.15;227398;1207;139126;-76
2021/08/23 19:55:13;;;;;;;7.50;6.80;;;;;;;16.30;86.77;100782.17;227252;1208;139137;-74
2021/08/23 20:00:15;;;;;;;8.30;7.30;;;;;;;16.23;87.14;100786.52;227264;1200;138528;-74
2021/08/23 20:05:16;;;;;;;8.50;7.20;;;;;;;16.20;87.23;100791.02;227557;1206;139018;-74
2021/08/23 20:10:19;;;;;;;7.60;6.90;;;;;;;16.18;87.34;100792.45;228041;1202;138715;-75
2021/08/23 20:15:23;;;;;;;8.00;7.20;;;;;;;16.22;87.32;100795.33;227463;1200;139267;-75
2021/08/23 20:20:25;;;;;;;7.00;6.40;;;;;;;16.24;87.10;100796.67;227655;1202;139610;-74
2021/08/23 20:25:27;;;;;;;8.10;7.40;;;;;;;16.26;87.18;100795.77;227659;1208;138936;-74
2021/08/23 20:30:29;;;;;;;8.30;7.50;;;;;;;16.27;86.98;100796.34;227121;1208;137989;-76
2021/08/23 20:35:36;;;;;;;7.70;7.00;;;;;;;16.23;87.25;100796.67;227258;1202;138405;-75
2021/08/23 20:40:46;;;;;;;8.30;7.50;;;;;;;16.20;87.47;100798.66;227377;1208;141825;-74
2021/08/23 20:45:47;;;;;;;7.90;7.20;;;;;;;16.22;87.42;100802.10;229987;1201;139207;-75
2021/08/23 20:50:49;;;;;;;7.80;7.00;;;;;;;16.21;87.71;100802.24;229511;1200;139937;-76
2021/08/23 20:55:51;;;;;;;8.20;7.50;;;;;;;16.25;87.77;100806.71;227283;1207;138884;-74
2021/08/23 21:00:52;;;;;;;8.40;7.70;;;;;;;16.28;87.64;100798.67;227185;1208;138907;-78
2021/08/23 21:05:54;;;;;;;8.50;7.70;;;;;;;16.33;87.52;100799.73;227997;1201;138776;-77
2021/08/23 21:10:55;;;;;;;9.00;8.10;;;;;;;16.31;87.48;100803.82;227723;1200;138237;-77
2021/08/23 21:15:57;;;;;;;8.50;7.60;;;;;;;16.26;87.85;100796.91;227425;1201;138827;-76
2021/08/23 21:21:06;;;;;;;8.00;7.20;;;;;;;16.25;87.87;100797.34;226974;1203;139300;-74
2021/08/23 21:26:08;;;;;;;7.50;6.80;;;;;;;16.25;87.89;100796.04;227322;1206;139070;-74
2021/08/23 21:31:11;;;;;;;6.80;6.20;;;;;;;16.27;87.80;100793.82;227015;1205;138970;-73
2021/08/23 21:36:13;;;;;;;6.70;6.00;;;;;;;16.25;87.70;100792.27;227061;1206;138683;-73
2021/08/23 21:41:15;;;;;;;6.60;6.00;;;;;;;16.27;87.57;100794.27;227114;1206;139151;-74
2021/08/23 21:46:16;;;;;;;6.90;6.20;;;;;;;16.28;87.48;100796.63;227097;1205;142532;-73
2021/08/23 21:51:18;;;;;;;6.00;5.40;;;;;;;16.26;87.42;100802.33;227106;1208;139242;-74
2021/08/23 21:56:20;;;;;;;5.90;5.30;;;;;;;16.23;87.26;100807.89;227250;1201;139162;-73
2021/08/23 22:01:21;;;;;;;7.10;5.80;;;;;;;16.20;87.29;100814.21;227187;1208;138371;-72
2021/08/23 22:06:23;;;;;;;5.90;5.30;;;;;;;16.15;87.43;100819.22;226944;1207;138877;-72
2021/08/23 22:11:25;;;;;;;5.70;5.10;;;;;;;16.12;87.41;100817.45;227205;1208;139050;-73
2021/08/23 22:16:26;;;;;;;4.90;4.50;;;;;;;16.09;87.44;100822.70;227370;1202;139103;-74
2021/08/23 22:21:29;;;;;;;5.80;5.20;;;;;;;16.08;87.45;100822.01;227221;1208;139215;-71
2021/08/23 22:26:30;;;;;;;5.60;5.00;;;;;;;16.08;87.25;100822.59;227737;1201;138929;-73
2021/08/23 22:31:33;;;;;;;5.00;4.50;;;;;;;16.09;87.17;100826.23;227054;1206;139253;-72
2021/08/23 22:36:34;;;;;;;5.40;4.90;;;;;;;16.08;86.87;100828.45;227152;1208;138569;-74
2021/08/23 22:41:36;;;;;;;6.00;5.40;;;;;;;16.06;86.69;100828.02;227096;1208;138430;-73
2021/08/23 22:46:38;;;;;;;5.20;4.70;;;;;;;15.97;86.98;100827.95;227097;1208;138720;-73
2021/08/23 22:51:39;;;;;;;5.50;4.50;;;;;;;15.92;86.98;100832.39;227119;1208;139240;-72
2021/08/23 22:56:41;;;;;;;4.40;4.10;;;;;;;15.92;86.92;100833.49;227652;1207;138921;-73